Time;durP1;ratioP1;P1;durP2;ratioP2;P2;SDS_P1;SDS_P2;PMS_P1;PMS_P2;Temp;Humidity;BMP_temperature;BMP_pressure;BME280_temperature;BME280_humidity;BME280_pressure;Samples;Min_cycle;Max_cycle;Signal;HPM_P1;HPM_P2
2022/07/02 00:00:41;;;;;;;5.10;3.63;;;18.10;99.90;;;;;;5083499;28;20402;-73
2022/07/02 00:03:10;;;;;;;4.40;3.25;;;18.00;99.90;;;;;;5079996;28;20025;-72
2022/07/02 00:05:47;;;;;;;6.07;3.38;;;18.00;99.90;;;;;;5081764;28;20032;-73
2022/07/02 00:08:13;;;;;;;6.10;3.20;;;18.00;99.90;;;;;;5086767;28;20025;-73
2022/07/02 00:10:40;;;;;;;6.97;3.10;;;17.90;99.90;;;;;;5084290;28;20020;-73
2022/07/02 00:13:07;;;;;;;2.95;2.67;;;17.90;99.90;;;;;;5081112;28;20062;-73
2022/07/02 00:15:34;;;;;;;3.75;3.17;;;17.90;99.90;;;;;;5081372;28;20032;-73
2022/07/02 00:17:59;;;;;;;2.65;2.42;;;17.80;99.90;;;;;;5084199;28;20024;-73
2022/07/02 00:20:25;;;;;;;5.40;2.85;;;17.70;99.90;;;;;;5080980;28;20439;-73
2022/07/02 00:22:53;;;;;;;4.70;3.20;;;17.70;99.90;;;;;;5084834;28;20020;-72
2022/07/02 00:25:19;;;;;;;6.53;3.10;;;17.70;99.90;;;;;;5080899;28;20020;-73
2022/07/02 00:27:45;;;;;;;6.30;2.72;;;17.70;99.90;;;;;;5084743;28;20042;-73
2022/07/02 00:30:14;;;;;;;6.88;2.85;;;17.70;99.90;;;;;;5080354;28;20050;-73
2022/07/02 00:32:42;;;;;;;6.05;2.90;;;17.60;99.90;;;;;;5084750;28;20091;-74
2022/07/02 00:35:10;;;;;;;3.75;2.80;;;17.60;99.90;;;;;;5081978;28;20024;-71
2022/07/02 00:37:37;;;;;;;6.57;2.80;;;17.60;99.90;;;;;;5084384;28;20012;-73
2022/07/02 00:40:07;;;;;;;3.55;2.60;;;17.50;99.90;;;;;;5084870;28;20048;-73
2022/07/02 00:42:35;;;;;;;6.25;2.55;;;17.50;99.90;;;;;;5083592;28;20473;-73
2022/07/02 00:45:02;;;;;;;4.85;2.97;;;17.50;99.90;;;;;;5083387;28;20398;-73
2022/07/02 00:47:29;;;;;;;7.50;3.05;;;17.40;99.90;;;;;;5080973;28;20086;-73
2022/07/02 00:49:55;;;;;;;4.80;2.60;;;17.40;99.90;;;;;;5081169;28;20380;-73
2022/07/02 00:52:21;;;;;;;8.32;2.70;;;17.40;99.90;;;;;;5077441;28;20492;-73
2022/07/02 00:54:46;;;;;;;3.90;2.67;;;17.40;99.90;;;;;;5079700;28;20520;-72
2022/07/02 00:57:12;;;;;;;5.65;2.60;;;17.40;99.90;;;;;;5077284;28;20025;-74
2022/07/02 00:59:40;;;;;;;3.70;2.90;;;17.40;99.90;;;;;;5082225;28;20496;-72
2022/07/02 01:02:09;;;;;;;4.68;2.88;;;17.40;99.90;;;;;;5081831;28;20020;-72
2022/07/02 01:04:35;;;;;;;6.55;2.50;;;17.30;99.90;;;;;;5080065;28;20114;-71
2022/07/02 01:07:03;;;;;;;4.78;2.83;;;17.30;99.90;;;;;;5084622;28;20500;-68
2022/07/02 01:12:23;;;;;;;9.82;2.83;;;17.30;99.90;;;;;;5086049;28;20185;-73
2022/07/02 01:14:54;;;;;;;6.70;2.67;;;17.20;99.90;;;;;;5090307;28;20081;-73
2022/07/02 01:17:20;;;;;;;3.15;2.40;;;17.20;99.90;;;;;;5082144;28;20025;-72
2022/07/02 01:19:46;;;;;;;6.13;3.17;;;17.20;99.90;;;;;;5090602;28;20474;-73
2022/07/02 01:22:31;;;;;;;6.13;3.08;;;17.20;99.90;;;;;;5084959;28;20105;-72
2022/07/02 01:24:56;;;;;;;7.25;2.97;;;17.10;99.90;;;;;;5088515;28;20064;-72
2022/07/02 01:27:23;;;;;;;5.03;2.90;;;17.10;99.90;;;;;;5085064;28;20481;-73
2022/07/02 01:29:49;;;;;;;4.68;2.70;;;17.00;99.90;;;;;;5093766;28;20032;-72
2022/07/02 01:32:15;;;;;;;4.43;2.85;;;17.00;99.90;;;;;;5086851;28;20154;-71
2022/07/02 01:34:53;;;;;;;6.68;3.25;;;17.00;99.90;;;;;;5091247;28;20444;-73
2022/07/02 01:37:21;;;;;;;8.30;3.00;;;17.00;99.90;;;;;;5085331;28;20031;-72
2022/07/02 01:39:48;;;;;;;4.45;2.70;;;16.90;99.90;;;;;;5086745;28;20027;-72
2022/07/02 01:42:15;;;;;;;3.47;3.00;;;16.90;99.90;;;;;;5086863;28;20029;-72
2022/07/02 01:44:43;;;;;;;7.90;3.33;;;16.90;99.90;;;;;;5092668;28;20024;-72
2022/07/02 01:47:10;;;;;;;4.90;3.28;;;16.80;99.90;;;;;;5082536;28;20032;-72
2022/07/02 01:49:37;;;;;;;5.30;2.92;;;16.80;99.90;;;;;;5086972;28;20469;-72
2022/07/02 01:52:04;;;;;;;5.30;2.70;;;16.70;99.90;;;;;;5083898;28;20492;-72
2022/07/02 01:54:31;;;;;;;6.53;3.10;;;16.70;99.90;;;;;;5088967;28;20020;-72
2022/07/02 01:56:57;;;;;;;6.63;2.78;;;16.70;99.90;;;;;;5084406;28;20028;-73
2022/07/02 01:59:23;;;;;;;2.92;2.40;;;16.70;99.90;;;;;;5087020;28;20016;-72
2022/07/02 02:01:49;;;;;;;3.92;3.28;;;16.70;99.90;;;;;;5087544;28;20445;-71
2022/07/02 02:04:14;;;;;;;6.78;2.83;;;16.60;99.90;;;;;;5082309;28;20393;-72
2022/07/02 02:06:40;;;;;;;6.10;2.88;;;16.60;99.90;;;;;;5090354;28;20470;-72
2022/07/02 02:09:06;;;;;;;4.50;3.03;;;16.60;99.90;;;;;;5089426;28;20025;-74
2022/07/02 02:11:32;;;;;;;3.97;2.55;;;16.60;99.90;;;;;;5085116;28;20024;-73
2022/07/02 02:13:59;;;;;;;3.30;2.53;;;16.60;99.90;;;;;;5087368;28;20016;-72
2022/07/02 02:16:26;;;;;;;7.80;2.95;;;16.50;99.90;;;;;;5087109;28;20020;-74
2022/07/02 02:18:52;;;;;;;4.97;2.33;;;16.50;99.90;;;;;;5081418;28;20575;-72
2022/07/02 02:21:18;;;;;;;8.68;2.90;;;16.50;99.90;;;;;;5087106;28;20020;-74
2022/07/02 02:23:44;;;;;;;5.35;3.20;;;16.50;99.90;;;;;;5092172;28;20023;-74
2022/07/02 02:26:10;;;;;;;3.95;2.83;;;16.50;99.90;;;;;;5087252;28;20093;-73
2022/07/02 02:28:36;;;;;;;4.03;2.60;;;16.40;99.90;;;;;;5088176;28;20025;-71
2022/07/02 02:31:01;;;;;;;3.80;2.83;;;16.40;99.90;;;;;;5089843;28;20042;-72
2022/07/02 02:33:27;;;;;;;6.07;3.20;;;16.40;99.90;;;;;;5088505;28;20024;-74
2022/07/02 02:35:53;;;;;;;2.85;2.22;;;16.40;99.90;;;;;;5087060;28;20428;-70
2022/07/02 02:38:18;;;;;;;3.38;3.05;;;16.40;99.90;;;;;;5086421;28;20020;-72
2022/07/02 02:40:44;;;;;;;5.25;2.80;;;16.40;99.90;;;;;;5090662;28;20031;-73
2022/07/02 02:43:10;;;;;;;5.18;3.08;;;16.30;99.90;;;;;;5088805;28;20016;-72
2022/07/02 02:45:36;;;;;;;5.95;3.45;;;16.30;99.90;;;;;;5086121;28;20477;-71
2022/07/02 02:48:02;;;;;;;4.20;3.30;;;16.30;99.90;;;;;;5087448;28;20023;-74
2022/07/02 02:50:28;;;;;;;5.68;3.50;;;16.30;99.90;;;;;;5094319;28;20450;-73
2022/07/02 02:52:54;;;;;;;5.78;3.42;;;16.20;99.90;;;;;;5084932;28;20065;-73
2022/07/02 02:55:19;;;;;;;5.20;3.40;;;16.20;99.90;;;;;;5086067;28;20416;-73
2022/07/02 02:57:45;;;;;;;3.08;2.70;;;16.30;99.90;;;;;;5089206;28;20024;-72
2022/07/02 03:00:11;;;;;;;10.63;2.92;;;16.10;99.90;;;;;;5087272;28;20024;-73
2022/07/02 03:02:36;;;;;;;9.15;3.10;;;16.10;99.90;;;;;;5083496;28;20473;-71
2022/07/02 03:05:02;;;;;;;4.40;2.78;;;16.10;99.90;;;;;;5079632;28;20020;-75
2022/07/02 03:07:28;;;;;;;5.93;2.53;;;16.10;99.90;;;;;;5092763;28;20062;-75
2022/07/02 03:09:54;;;;;;;5.88;2.70;;;16.10;99.90;;;;;;5079684;28;20032;-74
2022/07/02 03:12:19;;;;;;;5.53;2.90;;;16.10;99.90;;;;;;5083089;28;20044;-74
2022/07/02 03:14:45;;;;;;;4.68;3.05;;;16.10;99.90;;;;;;5086763;28;20390;-74
2022/07/02 03:17:11;;;;;;;4.90;2.78;;;16.00;99.90;;;;;;5086752;28;20042;-74
2022/07/02 03:19:36;;;;;;;3.55;2.72;;;15.90;99.90;;;;;;5081070;28;20059;-74
2022/07/02 03:22:02;;;;;;;3.63;2.70;;;15.90;99.90;;;;;;5084332;28;20390;-74
2022/07/02 03:24:28;;;;;;;5.57;2.67;;;15.90;99.90;;;;;;5087505;28;20550;-73
2022/07/02 03:26:53;;;;;;;3.35;2.90;;;15.90;99.90;;;;;;5081007;28;20045;-73
2022/07/02 03:29:19;;;;;;;3.00;2.80;;;15.90;99.90;;;;;;5075065;28;20052;-73
2022/07/02 03:31:45;;;;;;;5.72;3.00;;;15.80;99.90;;;;;;5086411;28;20059;-74
2022/07/02 03:34:10;;;;;;;5.07;2.88;;;15.90;99.90;;;;;;5081023;28;20028;-74
2022/07/02 03:36:36;;;;;;;4.85;2.92;;;15.90;99.90;;;;;;5084890;28;20039;-74
2022/07/02 03:39:02;;;;;;;4.68;2.65;;;15.80;99.90;;;;;;5077840;28;20454;-74
2022/07/02 03:41:27;;;;;;;5.80;3.20;;;15.80;99.90;;;;;;5088070;28;20039;-73
2022/07/02 03:43:53;;;;;;;2.95;2.75;;;15.90;99.90;;;;;;5083335;28;20052;-73
2022/07/02 03:46:19;;;;;;;5.05;3.22;;;15.80;99.90;;;;;;5082460;28;20504;-74
2022/07/02 03:48:45;;;;;;;5.05;3.83;;;15.80;99.90;;;;;;5081749;28;20099;-74
2022/07/02 03:51:11;;;;;;;5.57;3.22;;;15.70;99.90;;;;;;5080573;28;20032;-74
2022/07/02 03:53:36;;;;;;;6.43;3.00;;;15.70;99.90;;;;;;5085478;28;20024;-74
2022/07/02 03:56:02;;;;;;;6.53;3.35;;;15.70;99.90;;;;;;5084761;28;20104;-74
2022/07/02 03:58:30;;;;;;;8.23;3.20;;;15.70;99.90;;;;;;5112490;27;20040;-72
2022/07/02 04:00:57;;;;;;;4.60;3.33;;;15.70;99.90;;;;;;5076001;28;20489;-73
2022/07/02 04:03:23;;;;;;;3.30;2.90;;;15.70;99.90;;;;;;5077184;28;20027;-73
2022/07/02 04:05:49;;;;;;;5.32;2.60;;;15.70;99.90;;;;;;5083190;28;20040;-72
2022/07/02 04:08:14;;;;;;;6.93;3.08;;;15.70;99.90;;;;;;5079824;28;20056;-74
2022/07/02 04:10:40;;;;;;;5.15;2.70;;;15.70;99.90;;;;;;5090680;28;20035;-70
2022/07/02 04:13:07;;;;;;;4.63;2.88;;;15.70;99.90;;;;;;5083804;28;20013;-73
2022/07/02 04:15:33;;;;;;;9.23;2.75;;;15.60;99.90;;;;;;5084405;28;20031;-73
2022/07/02 04:17:59;;;;;;;3.40;2.72;;;15.70;99.90;;;;;;5082555;28;20020;-72
2022/07/02 04:20:26;;;;;;;4.90;2.28;;;15.70;99.90;;;;;;5085809;28;20100;-73
2022/07/02 04:22:52;;;;;;;5.00;3.00;;;15.70;99.90;;;;;;5082019;28;20027;-73
2022/07/02 04:25:18;;;;;;;6.18;2.92;;;15.60;99.90;;;;;;5084522;28;20043;-73
2022/07/02 04:27:43;;;;;;;3.10;2.83;;;15.60;99.90;;;;;;5084923;28;20041;-72
2022/07/02 04:30:09;;;;;;;5.68;2.65;;;15.70;99.90;;;;;;5077226;28;20077;-73
2022/07/02 04:32:35;;;;;;;5.18;2.33;;;15.70;99.90;;;;;;5080331;28;20103;-73
2022/07/02 04:35:01;;;;;;;8.73;2.65;;;15.70;99.90;;;;;;5087438;28;20492;-73
2022/07/02 04:37:27;;;;;;;7.07;2.40;;;15.70;99.90;;;;;;5084736;28;20032;-73
2022/07/02 04:39:52;;;;;;;4.03;2.28;;;15.70;99.90;;;;;;5083987;28;20108;-74
2022/07/02 04:42:18;;;;;;;3.58;3.00;;;15.70;99.90;;;;;;5082545;28;20056;-73
2022/07/02 04:44:44;;;;;;;4.88;2.65;;;15.70;99.90;;;;;;5089614;28;20041;-73
2022/07/02 04:47:09;;;;;;;6.68;3.10;;;15.70;99.90;;;;;;5089440;28;20405;-73
2022/07/02 04:49:35;;;;;;;5.30;3.00;;;15.70;99.90;;;;;;5088456;28;20485;-73
2022/07/02 04:52:01;;;;;;;3.92;3.00;;;15.70;99.90;;;;;;5085323;28;20472;-74
2022/07/02 04:54:27;;;;;;;5.57;2.83;;;15.70;99.90;;;;;;5087170;28;20362;-74
2022/07/02 04:56:52;;;;;;;7.93;3.60;;;15.70;99.90;;;;;;5091718;28;20111;-74
2022/07/02 04:59:18;;;;;;;8.38;2.67;;;15.80;99.90;;;;;;5086985;28;20862;-74
2022/07/02 05:01:44;;;;;;;6.15;2.95;;;15.80;99.90;;;;;;5089146;28;20106;-74
2022/07/02 05:04:10;;;;;;;4.25;2.80;;;15.80;99.90;;;;;;5081314;28;20032;-72
2022/07/02 05:06:36;;;;;;;5.95;3.05;;;15.80;99.90;;;;;;5093468;28;20036;-72
2022/07/02 05:09:02;;;;;;;6.45;3.67;;;15.80;99.90;;;;;;5090210;28;20044;-73
2022/07/02 05:11:28;;;;;;;4.03;2.90;;;15.80;99.90;;;;;;5088619;28;20456;-73
2022/07/02 05:13:53;;;;;;;5.05;2.80;;;15.80;99.90;;;;;;5085704;28;20104;-74
2022/07/02 05:16:19;;;;;;;3.67;2.95;;;15.90;99.90;;;;;;5088948;28;20503;-74
2022/07/02 05:18:45;;;;;;;5.90;3.60;;;15.80;99.90;;;;;;5086490;28;20019;-74
2022/07/02 05:21:10;;;;;;;7.93;4.00;;;15.80;99.90;;;;;;5088570;28;20052;-74
2022/07/02 05:23:36;;;;;;;5.63;3.33;;;15.80;99.90;;;;;;5087110;28;20123;-74
2022/07/02 05:26:02;;;;;;;6.53;3.85;;;15.90;99.90;;;;;;5091333;28;20024;-73
2022/07/02 05:28:28;;;;;;;6.45;3.17;;;15.90;99.90;;;;;;5086277;28;20166;-74
2022/07/02 05:30:54;;;;;;;7.47;3.20;;;16.00;99.90;;;;;;5084730;28;20016;-74
2022/07/02 05:33:20;;;;;;;4.00;2.85;;;15.90;99.90;;;;;;5087929;28;20115;-74
2022/07/02 05:35:46;;;;;;;5.38;2.83;;;16.00;99.90;;;;;;5089657;28;20553;-74
2022/07/02 05:38:12;;;;;;;4.68;3.20;;;16.00;99.90;;;;;;5085288;28;20026;-74
2022/07/02 05:40:38;;;;;;;3.45;3.00;;;16.10;99.90;;;;;;5090624;28;20024;-74
2022/07/02 05:43:03;;;;;;;5.47;2.80;;;16.10;99.90;;;;;;5088676;28;20456;-73
2022/07/02 05:45:29;;;;;;;5.80;3.30;;;16.10;99.90;;;;;;5090311;28;20056;-73
2022/07/02 05:47:55;;;;;;;6.68;3.60;;;16.10;99.90;;;;;;5090551;28;20016;-73
2022/07/02 05:50:21;;;;;;;8.55;3.50;;;16.20;99.90;;;;;;5087497;28;20543;-74
2022/07/02 05:52:47;;;;;;;7.13;4.25;;;16.20;99.90;;;;;;5083959;28;20039;-74
2022/07/02 05:55:14;;;;;;;5.30;3.05;;;16.20;99.90;;;;;;5080230;28;20032;-74
2022/07/02 05:57:40;;;;;;;8.45;3.72;;;16.20;99.90;;;;;;5083533;28;20078;-73
2022/07/02 06:00:08;;;;;;;5.68;2.78;;;16.30;99.90;;;;;;5089605;28;20034;-74
2022/07/02 06:02:34;;;;;;;7.78;3.90;;;16.30;99.90;;;;;;5084127;28;20124;-74
2022/07/02 06:07:38;;;;;;;4.22;2.95;;;16.20;99.90;;;;;;5078880;28;20413;-74
2022/07/02 06:07:46;;;;;;;5.25;3.92;;;16.20;99.90;;;;;;5084642;28;20044;-74
2022/07/02 06:10:18;;;;;;;5.03;3.30;;;16.30;99.90;;;;;;5090188;28;20028;-74
2022/07/02 06:12:49;;;;;;;5.65;2.90;;;16.30;99.90;;;;;;5084004;28;20028;-74
2022/07/02 06:15:15;;;;;;;7.10;3.00;;;16.40;99.90;;;;;;5087460;28;20079;-74
2022/07/02 06:17:41;;;;;;;6.97;3.53;;;16.50;99.90;;;;;;5085049;28;20031;-74
2022/07/02 06:20:08;;;;;;;7.53;3.88;;;16.40;99.90;;;;;;5081746;28;20153;-74
2022/07/02 06:22:33;;;;;;;8.32;3.67;;;16.50;99.90;;;;;;5086128;28;20473;-74
2022/07/02 06:24:59;;;;;;;3.97;2.72;;;16.60;99.90;;;;;;5091998;28;20035;-72
2022/07/02 06:27:25;;;;;;;8.57;3.13;;;16.60;99.90;;;;;;5083044;28;20552;-74
2022/07/02 06:29:50;;;;;;;3.80;3.50;;;16.70;99.90;;;;;;5080311;28;20100;-74
2022/07/02 06:32:16;;;;;;;6.25;3.75;;;16.70;99.90;;;;;;5083355;28;20036;-73
2022/07/02 06:34:43;;;;;;;5.32;3.60;;;16.80;99.90;;;;;;5088608;28;20024;-74
2022/07/02 06:37:09;;;;;;;4.93;3.03;;;16.90;99.90;;;;;;5087075;28;20029;-74
2022/07/02 06:39:36;;;;;;;6.18;3.42;;;16.80;99.90;;;;;;5087162;28;20493;-74
2022/07/02 06:42:20;;;;;;;5.57;3.10;;;16.90;99.90;;;;;;5087570;28;20123;-73
2022/07/02 06:44:52;;;;;;;6.85;3.30;;;17.10;99.90;;;;;;5088958;28;20026;-73
2022/07/02 06:47:18;;;;;;;5.25;3.00;;;17.20;99.90;;;;;;5079342;28;20489;-74
2022/07/02 06:49:45;;;;;;;6.38;3.20;;;17.30;99.90;;;;;;5084715;28;20376;-71
2022/07/02 06:52:11;;;;;;;7.35;2.70;;;17.40;99.90;;;;;;5084545;28;20071;-73
2022/07/02 06:54:37;;;;;;;3.58;2.17;;;17.60;99.90;;;;;;5083726;28;20492;-73
2022/07/02 06:57:04;;;;;;;5.25;3.00;;;17.90;99.90;;;;;;5084216;28;20032;-74
2022/07/02 06:59:30;;;;;;;4.88;2.42;;;18.10;99.90;;;;;;5083250;28;20469;-73
2022/07/02 07:01:56;;;;;;;5.65;2.22;;;18.00;99.90;;;;;;5085592;28;20032;-74
2022/07/02 07:04:22;;;;;;;7.47;2.42;;;18.20;99.90;;;;;;5080080;28;20106;-73
2022/07/02 07:09:19;;;;;;;7.45;2.30;;;18.70;99.90;;;;;;5087630;28;20477;-74
2022/07/02 07:11:45;;;;;;;3.10;2.17;;;18.80;99.90;;;;;;5081400;28;20029;-74
2022/07/02 07:14:11;;;;;;;6.53;2.72;;;18.80;99.90;;;;;;5088403;28;20074;-74
2022/07/02 07:16:37;;;;;;;5.50;2.00;;;19.10;99.90;;;;;;5088338;28;20039;-74
2022/07/02 07:19:05;;;;;;;4.30;1.95;;;19.20;99.90;;;;;;5080281;28;20025;-74
2022/07/02 07:21:32;;;;;;;4.65;1.80;;;19.20;99.90;;;;;;5087519;28;20102;-74
2022/07/02 07:23:58;;;;;;;7.03;2.20;;;19.30;99.90;;;;;;5087527;28;20020;-74
2022/07/02 07:26:24;;;;;;;5.18;1.90;;;19.60;99.90;;;;;;5085149;28;20097;-75
2022/07/02 07:28:49;;;;;;;4.25;1.50;;;19.60;99.90;;;;;;5082876;28;20432;-73
2022/07/02 07:31:21;;;;;;;4.63;1.52;;;19.80;99.90;;;;;;5082428;28;20024;-75
2022/07/02 07:33:51;;;;;;;2.60;1.35;;;19.80;99.90;;;;;;5090653;28;20030;-74
2022/07/02 07:36:18;;;;;;;3.50;1.20;;;19.90;99.90;;;;;;5091979;28;20473;-74
2022/07/02 07:38:44;;;;;;;4.95;1.10;;;20.10;99.90;;;;;;5086396;28;20102;-74
2022/07/02 07:41:10;;;;;;;5.20;1.00;;;20.10;99.90;;;;;;5080340;28;20035;-75
2022/07/02 07:43:36;;;;;;;5.13;1.45;;;20.30;99.90;;;;;;5085149;28;20025;-75
2022/07/02 07:46:02;;;;;;;5.47;1.45;;;20.50;99.90;;;;;;5080150;28;20078;-75
2022/07/02 07:48:27;;;;;;;4.00;1.55;;;20.50;99.90;;;;;;5079806;28;20074;-75
2022/07/02 07:50:53;;;;;;;3.45;1.20;;;20.60;99.90;;;;;;5081574;28;20021;-75
2022/07/02 07:53:19;;;;;;;3.95;1.48;;;20.60;99.90;;;;;;5084249;28;20408;-75
2022/07/02 07:55:45;;;;;;;4.95;1.63;;;20.70;99.90;;;;;;5082016;28;20080;-76
2022/07/02 07:58:11;;;;;;;2.75;1.00;;;20.90;99.90;;;;;;5075487;28;20048;-76
2022/07/02 08:00:37;;;;;;;3.85;1.25;;;21.00;99.90;;;;;;5083343;28;20461;-76
2022/07/02 08:03:03;;;;;;;6.13;1.35;;;21.10;99.90;;;;;;5081441;28;20086;-76
2022/07/02 08:05:28;;;;;;;4.55;1.90;;;21.20;99.90;;;;;;5081452;28;20021;-76
2022/07/02 08:07:54;;;;;;;3.13;1.23;;;21.40;99.90;;;;;;5081233;28;20036;-76
2022/07/02 08:10:20;;;;;;;4.28;1.38;;;21.50;99.90;;;;;;5077484;28;20029;-76
2022/07/02 08:12:48;;;;;;;5.32;1.63;;;21.50;99.90;;;;;;5093042;28;20498;-75
2022/07/02 08:15:13;;;;;;;2.75;1.35;;;21.50;99.90;;;;;;5081903;28;20496;-76
2022/07/02 08:17:39;;;;;;;1.58;0.88;;;21.70;99.90;;;;;;5091303;28;20037;-76
2022/07/02 08:20:07;;;;;;;3.17;1.00;;;21.80;99.90;;;;;;5087753;28;20487;-76
2022/07/02 08:22:34;;;;;;;3.42;1.48;;;21.60;99.90;;;;;;5086559;28;20021;-75
2022/07/02 08:25:00;;;;;;;2.17;1.10;;;21.90;99.90;;;;;;5089879;28;20016;-75
2022/07/02 08:27:25;;;;;;;7.38;1.25;;;22.10;99.90;;;;;;5089143;28;20052;-76
2022/07/02 08:29:52;;;;;;;2.38;0.93;;;22.00;99.90;;;;;;5079873;28;20017;-76
2022/07/02 08:32:18;;;;;;;3.20;1.30;;;22.10;99.90;;;;;;5092318;28;20081;-75
2022/07/02 08:34:44;;;;;;;6.43;1.15;;;22.40;99.90;;;;;;5085886;28;20064;-75
2022/07/02 08:37:10;;;;;;;3.80;1.10;;;22.60;99.90;;;;;;5088192;28;20036;-76
2022/07/02 08:39:36;;;;;;;3.70;1.20;;;22.80;99.90;;;;;;5086449;28;20031;-76
2022/07/02 08:42:04;;;;;;;1.38;0.70;;;22.80;99.90;;;;;;5092011;28;20044;-75
2022/07/02 08:44:32;;;;;;;5.22;1.30;;;22.90;99.90;;;;;;5090386;28;20045;-75
2022/07/02 08:46:59;;;;;;;2.17;1.00;;;22.90;99.90;;;;;;5088945;28;20030;-74
2022/07/02 08:49:27;;;;;;;3.65;0.90;;;22.70;99.90;;;;;;5086955;28;20388;-75
2022/07/02 08:54:27;;;;;;;1.85;0.90;;;23.20;99.90;;;;;;5088995;28;20039;-74
2022/07/02 08:56:55;;;;;;;2.92;1.20;;;23.50;99.90;;;;;;5085355;28;20041;-74
2022/07/02 08:59:21;;;;;;;3.70;0.98;;;23.60;99.90;;;;;;5080878;28;20028;-75
2022/07/02 09:01:50;;;;;;;2.83;1.20;;;23.50;99.90;;;;;;5092000;28;20017;-76
2022/07/02 09:04:17;;;;;;;2.67;0.80;;;23.50;99.90;;;;;;5088953;28;20036;-75
2022/07/02 09:06:46;;;;;;;2.55;0.90;;;23.70;98.40;;;;;;5087908;28;20016;-74
2022/07/02 09:09:12;;;;;;;3.13;1.05;;;23.70;98.70;;;;;;5086620;28;20068;-75
2022/07/02 09:11:38;;;;;;;2.28;0.70;;;23.90;98.50;;;;;;5085278;28;20082;-76
2022/07/02 09:14:06;;;;;;;2.67;0.90;;;24.10;97.70;;;;;;5087925;28;20016;-74
2022/07/02 09:16:33;;;;;;;1.88;0.70;;;24.10;96.90;;;;;;5086622;28;20028;-75
2022/07/02 09:18:59;;;;;;;4.32;0.63;;;24.20;96.60;;;;;;5086747;28;20024;-74
2022/07/02 09:21:24;;;;;;;3.70;0.98;;;24.30;97.40;;;;;;5087173;28;20036;-75
2022/07/02 09:23:51;;;;;;;7.75;1.13;;;24.40;98.30;;;;;;5093212;28;20043;-73
2022/07/02 09:26:22;;;;;;;2.17;0.50;;;24.60;96.80;;;;;;5088497;28;20067;-75
2022/07/02 09:28:55;;;;;;;2.38;0.80;;;24.70;97.80;;;;;;5081444;28;20086;-74
2022/07/02 09:31:21;;;;;;;1.80;0.90;;;24.50;97.50;;;;;;5083382;28;20438;-74
2022/07/02 09:33:47;;;;;;;3.65;1.20;;;24.70;97.30;;;;;;5088636;28;20047;-75
2022/07/02 09:36:13;;;;;;;1.45;0.60;;;24.80;94.90;;;;;;5091843;28;20032;-75
2022/07/02 09:38:50;;;;;;;1.25;0.70;;;24.80;94.30;;;;;;5086166;28;20032;-74
2022/07/02 09:41:21;;;;;;;2.47;0.85;;;24.70;96.20;;;;;;5085843;28;20036;-75
2022/07/02 09:44:00;;;;;;;3.58;0.70;;;24.70;96.00;;;;;;5087779;28;20106;-73
2022/07/02 09:46:27;;;;;;;2.15;0.80;;;24.80;95.00;;;;;;5088307;28;20069;-75
2022/07/02 09:48:53;;;;;;;2.95;0.60;;;24.80;96.40;;;;;;5088137;28;20032;-74
2022/07/02 09:51:18;;;;;;;1.35;0.50;;;24.80;95.10;;;;;;5084649;28;20386;-75
2022/07/02 09:53:48;;;;;;;3.45;0.90;;;24.70;95.20;;;;;;5086730;28;20028;-76
2022/07/02 09:56:14;;;;;;;2.20;0.73;;;24.80;93.70;;;;;;5077360;28;20040;-74
2022/07/02 09:58:39;;;;;;;2.05;0.80;;;24.90;95.60;;;;;;5087678;28;20020;-74
2022/07/02 10:01:05;;;;;;;4.85;1.20;;;25.00;95.00;;;;;;5090213;28;20020;-76
2022/07/02 10:03:31;;;;;;;8.52;1.00;;;24.90;95.30;;;;;;5081540;28;20070;-73
2022/07/02 10:05:57;;;;;;;2.45;0.70;;;24.90;94.40;;;;;;5078392;28;20577;-73
2022/07/02 10:08:23;;;;;;;1.85;0.60;;;25.30;95.00;;;;;;5081967;28;20029;-75
2022/07/02 10:10:49;;;;;;;4.10;0.80;;;25.40;93.90;;;;;;5093791;28;20106;-74
2022/07/02 10:13:16;;;;;;;5.63;0.80;;;25.50;95.00;;;;;;5081484;28;20158;-74
2022/07/02 10:16:03;;;;;;;2.47;1.02;;;25.80;94.10;;;;;;5088548;28;20027;-75
2022/07/02 10:18:29;;;;;;;3.58;0.65;;;26.10;92.50;;;;;;5082215;28;20039;-76
2022/07/02 10:20:56;;;;;;;1.30;0.90;;;26.30;95.00;;;;;;5090609;28;20008;-75
2022/07/02 10:23:23;;;;;;;2.05;0.77;;;26.30;92.80;;;;;;5080112;28;20056;-75
2022/07/02 10:25:50;;;;;;;1.45;0.70;;;26.00;90.50;;;;;;5079890;28;20114;-74
2022/07/02 10:28:16;;;;;;;1.88;0.77;;;25.40;90.90;;;;;;5078793;28;20071;-74
2022/07/02 10:30:42;;;;;;;3.03;0.65;;;25.50;93.40;;;;;;5083078;28;20038;-74
2022/07/02 10:33:37;;;;;;;2.35;0.65;;;25.60;94.40;;;;;;5083198;28;20380;-74
2022/07/02 10:36:04;;;;;;;1.65;0.70;;;25.60;93.30;;;;;;5080290;28;20024;-75
2022/07/02 10:38:34;;;;;;;2.40;0.75;;;25.50;91.30;;;;;;5083512;28;20050;-74
2022/07/02 10:41:01;;;;;;;1.23;0.57;;;25.60;92.00;;;;;;5085911;28;20428;-76
2022/07/02 10:43:28;;;;;;;1.58;0.77;;;25.70;91.20;;;;;;5090378;28;20020;-76
2022/07/02 10:46:10;;;;;;;1.75;0.60;;;25.50;92.20;;;;;;5079236;28;20068;-74
2022/07/02 10:48:48;;;;;;;1.63;0.85;;;25.80;91.30;;;;;;5084337;28;20044;-74
2022/07/02 10:51:35;;;;;;;2.38;0.57;;;26.10;90.30;;;;;;5082875;28;20038;-74
2022/07/02 10:54:03;;;;;;;2.05;0.65;;;26.00;91.20;;;;;;5080851;28;20086;-74
2022/07/02 10:56:30;;;;;;;2.67;0.60;;;26.00;91.90;;;;;;5083321;28;20124;-75
2022/07/02 10:58:56;;;;;;;1.17;0.52;;;25.70;89.40;;;;;;5083207;28;20097;-75
2022/07/02 11:01:24;;;;;;;2.13;0.73;;;25.20;90.00;;;;;;5084714;28;20025;-75
2022/07/02 11:03:55;;;;;;;2.60;0.70;;;25.10;91.90;;;;;;5074881;28;20039;-75
2022/07/02 11:06:28;;;;;;;2.72;0.40;;;25.20;91.90;;;;;;5101042;28;20476;-75
2022/07/02 11:08:59;;;;;;;2.90;0.50;;;25.00;91.40;;;;;;5113730;28;20384;-76
2022/07/02 11:11:40;;;;;;;2.75;0.60;;;25.20;91.40;;;;;;5114303;28;20024;-75
2022/07/02 11:14:11;;;;;;;3.35;0.50;;;25.60;92.30;;;;;;5101489;28;20027;-76
2022/07/02 11:16:39;;;;;;;1.88;0.77;;;26.00;93.90;;;;;;5092249;28;20046;-75
2022/07/02 11:19:16;;;;;;;0.95;0.63;;;26.40;90.80;;;;;;5093400;28;20116;-75
2022/07/02 11:21:41;;;;;;;2.03;0.60;;;26.50;92.30;;;;;;5093764;28;20020;-75
2022/07/02 11:24:10;;;;;;;1.98;0.43;;;26.30;90.30;;;;;;5092901;28;20096;-72
2022/07/02 11:26:39;;;;;;;3.05;0.52;;;26.40;91.00;;;;;;5092384;28;20448;-74
2022/07/02 11:29:05;;;;;;;1.30;0.40;;;26.30;87.80;;;;;;5080435;28;20035;-75
2022/07/02 11:31:42;;;;;;;2.83;0.50;;;26.10;90.80;;;;;;5092630;28;20104;-74
2022/07/02 11:34:08;;;;;;;2.15;0.73;;;25.50;90.00;;;;;;5087003;28;20016;-73
2022/07/02 11:36:37;;;;;;;2.38;0.30;;;25.50;91.60;;;;;;5083959;28;20032;-75
2022/07/02 11:39:14;;;;;;;0.70;0.47;;;25.40;89.50;;;;;;5086661;28;20016;-74
2022/07/02 11:41:42;;;;;;;1.98;0.50;;;25.40;91.40;;;;;;5082963;28;20020;-75
2022/07/02 11:44:31;;;;;;;1.40;0.70;;;25.80;91.60;;;;;;5082171;28;20012;-74
2022/07/02 11:46:58;;;;;;;1.15;0.50;;;25.80;91.30;;;;;;5085527;28;20480;-75
2022/07/02 11:49:26;;;;;;;2.60;0.50;;;25.50;91.20;;;;;;5079534;28;20408;-74
2022/07/02 11:51:53;;;;;;;2.40;0.40;;;25.60;90.30;;;;;;5086778;28;20507;-74
2022/07/02 11:54:19;;;;;;;2.42;0.50;;;25.70;91.00;;;;;;5081974;28;20129;-75
2022/07/02 11:56:46;;;;;;;2.42;0.47;;;26.00;91.60;;;;;;5081072;28;20036;-75
2022/07/02 11:59:17;;;;;;;0.70;0.40;;;26.50;91.30;;;;;;5078257;28;20035;-74
2022/07/02 12:01:44;;;;;;;0.55;0.30;;;26.90;90.60;;;;;;5087004;28;20476;-75
2022/07/02 12:04:15;;;;;;;2.95;0.63;;;26.80;90.70;;;;;;5079747;28;20032;-73
2022/07/02 12:06:52;;;;;;;2.80;0.65;;;26.40;86.70;;;;;;5081543;28;20071;-74
2022/07/02 12:09:22;;;;;;;1.23;0.35;;;26.60;91.00;;;;;;5088089;28;20020;-73
2022/07/02 12:11:48;;;;;;;4.80;0.55;;;26.40;87.70;;;;;;5082729;28;20017;-74
2022/07/02 12:14:15;;;;;;;0.60;0.40;;;26.10;89.00;;;;;;5082273;28;20042;-74
2022/07/02 12:16:44;;;;;;;1.63;0.45;;;26.50;91.30;;;;;;5088504;28;20012;-73
2022/07/02 12:19:15;;;;;;;8.07;0.50;;;26.40;88.90;;;;;;5089664;28;20110;-71
2022/07/02 12:21:41;;;;;;;1.25;0.52;;;26.40;90.60;;;;;;5080990;28;20064;-74
2022/07/02 12:24:20;;;;;;;2.40;0.30;;;26.40;91.00;;;;;;5079549;28;20021;-74
2022/07/02 12:27:19;;;;;;;2.63;0.40;;;26.40;90.30;;;;;;5086823;28;20070;-74
2022/07/02 12:29:54;;;;;;;2.20;0.30;;;26.20;88.70;;;;;;5070424;28;20508;-74
2022/07/02 12:32:24;;;;;;;2.25;0.45;;;26.90;89.70;;;;;;5085021;28;20482;-73
2022/07/02 12:34:54;;;;;;;1.48;0.65;;;26.90;87.60;;;;;;5078241;28;20070;-73
2022/07/02 12:37:31;;;;;;;2.28;0.52;;;26.80;87.50;;;;;;5082814;28;20025;-73
2022/07/02 12:39:59;;;;;;;2.08;0.70;;;26.70;88.90;;;;;;5084690;28;20024;-73
2022/07/02 12:42:26;;;;;;;1.00;0.60;;;27.10;90.20;;;;;;5085253;28;20032;-74
2022/07/02 12:45:03;;;;;;;1.40;0.43;;;27.30;90.30;;;;;;5083588;28;20477;-74
2022/07/02 12:47:34;;;;;;;3.45;0.63;;;27.50;85.90;;;;;;5079451;28;20064;-74
2022/07/02 12:50:12;;;;;;;1.23;0.82;;;27.30;87.90;;;;;;5088342;28;20016;-74
2022/07/02 12:52:47;;;;;;;3.22;0.50;;;27.20;85.90;;;;;;5081404;28;20107;-74
2022/07/02 12:55:30;;;;;;;1.67;0.45;;;27.40;88.40;;;;;;5079023;28;20036;-73
2022/07/02 12:58:02;;;;;;;1.33;0.52;;;27.50;88.70;;;;;;5116513;27;20031;-74